sensor_id;sensor_type;location;lat;lon;timestamp;P1;durP1;ratioP1;P2;durP2;ratioP2
51792;SDS011;37850;53.178;6.376;2023-08-01T00:01:32;18.33;;;4.95;;
51792;SDS011;37850;53.178;6.376;2023-08-01T00:03:58;12.63;;;4.65;;
51792;SDS011;37850;53.178;6.376;2023-08-01T00:06:23;14.20;;;4.75;;
51792;SDS011;37850;53.178;6.376;2023-08-01T00:08:50;14.93;;;4.55;;
51792;SDS011;37850;53.178;6.376;2023-08-01T00:11:16;15.80;;;4.57;;
51792;SDS011;37850;53.178;6.376;2023-08-01T00:13:42;14.60;;;4.35;;
51792;SDS011;37850;53.178;6.376;2023-08-01T00:16:10;11.70;;;4.20;;
51792;SDS011;37850;53.178;6.376;2023-08-01T00:18:36;9.75;;;4.18;;
51792;SDS011;37850;53.178;6.376;2023-08-01T00:21:02;10.02;;;3.88;;
51792;SDS011;37850;53.178;6.376;2023-08-01T00:23:31;12.45;;;4.78;;
51792;SDS011;37850;53.178;6.376;2023-08-01T00:25:57;11.07;;;3.70;;
51792;SDS011;37850;53.178;6.376;2023-08-01T00:28:22;16.17;;;4.53;;
51792;SDS011;37850;53.178;6.376;2023-08-01T00:30:48;12.73;;;4.28;;
51792;SDS011;37850;53.178;6.376;2023-08-01T00:33:14;10.30;;;3.92;;
51792;SDS011;37850;53.178;6.376;2023-08-01T00:35:40;12.02;;;3.92;;
51792;SDS011;37850;53.178;6.376;2023-08-01T00:38:06;12.20;;;3.90;;
51792;SDS011;37850;53.178;6.376;2023-08-01T00:40:33;13.23;;;4.50;;
51792;SDS011;37850;53.178;6.376;2023-08-01T00:42:59;9.35;;;4.05;;
51792;SDS011;37850;53.178;6.376;2023-08-01T00:45:28;10.15;;;4.07;;
51792;SDS011;37850;53.178;6.376;2023-08-01T00:47:55;8.68;;;3.72;;
51792;SDS011;37850;53.178;6.376;2023-08-01T00:50:22;10.95;;;3.85;;
51792;SDS011;37850;53.178;6.376;2023-08-01T00:52:51;8.38;;;3.70;;
51792;SDS011;37850;53.178;6.376;2023-08-01T00:55:18;10.45;;;3.60;;
51792;SDS011;37850;53.178;6.376;2023-08-01T00:57:44;12.35;;;4.22;;
51792;SDS011;37850;53.178;6.376;2023-08-01T01:00:10;13.48;;;4.53;;
51792;SDS011;37850;53.178;6.376;2023-08-01T01:02:37;8.52;;;3.45;;
51792;SDS011;37850;53.178;6.376;2023-08-01T01:05:03;10.60;;;4.43;;
51792;SDS011;37850;53.178;6.376;2023-08-01T01:07:30;8.45;;;3.53;;
51792;SDS011;37850;53.178;6.376;2023-08-01T01:09:57;11.43;;;3.75;;
51792;SDS011;37850;53.178;6.376;2023-08-01T01:12:23;10.65;;;4.10;;
51792;SDS011;37850;53.178;6.376;2023-08-01T01:14:49;14.77;;;4.13;;
51792;SDS011;37850;53.178;6.376;2023-08-01T01:17:14;9.63;;;4.07;;
51792;SDS011;37850;53.178;6.376;2023-08-01T01:19:40;11.38;;;4.15;;
51792;SDS011;37850;53.178;6.376;2023-08-01T01:22:09;9.73;;;4.05;;
51792;SDS011;37850;53.178;6.376;2023-08-01T01:24:36;12.68;;;4.13;;
51792;SDS011;37850;53.178;6.376;2023-08-01T01:27:03;11.15;;;3.60;;
51792;SDS011;37850;53.178;6.376;2023-08-01T01:29:31;11.77;;;3.65;;
51792;SDS011;37850;53.178;6.376;2023-08-01T01:31:59;10.38;;;3.60;;
51792;SDS011;37850;53.178;6.376;2023-08-01T01:34:28;10.25;;;3.85;;
51792;SDS011;37850;53.178;6.376;2023-08-01T01:36:54;10.82;;;4.15;;
51792;SDS011;37850;53.178;6.376;2023-08-01T01:39:20;9.43;;;3.45;;
51792;SDS011;37850;53.178;6.376;2023-08-01T01:41:46;8.32;;;3.90;;
51792;SDS011;37850;53.178;6.376;2023-08-01T01:44:12;11.13;;;4.13;;
51792;SDS011;37850;53.178;6.376;2023-08-01T01:46:37;9.32;;;3.47;;
51792;SDS011;37850;53.178;6.376;2023-08-01T01:49:03;11.57;;;3.80;;
51792;SDS011;37850;53.178;6.376;2023-08-01T01:51:29;12.35;;;3.97;;
51792;SDS011;37850;53.178;6.376;2023-08-01T01:53:55;10.00;;;3.70;;
51792;SDS011;37850;53.178;6.376;2023-08-01T01:56:21;10.50;;;3.63;;
51792;SDS011;37850;53.178;6.376;2023-08-01T01:58:47;8.80;;;3.40;;
51792;SDS011;37850;53.178;6.376;2023-08-01T02:01:13;9.90;;;3.50;;
51792;SDS011;37850;53.178;6.376;2023-08-01T02:03:39;8.98;;;3.13;;
51792;SDS011;37850;53.178;6.376;2023-08-01T02:06:05;8.90;;;3.65;;
51792;SDS011;37850;53.178;6.376;2023-08-01T02:08:30;11.65;;;4.68;;
51792;SDS011;37850;53.178;6.376;2023-08-01T02:10:56;10.63;;;3.83;;
51792;SDS011;37850;53.178;6.376;2023-08-01T02:13:23;10.75;;;4.20;;
51792;SDS011;37850;53.178;6.376;2023-08-01T02:15:50;13.57;;;3.72;;
51792;SDS011;37850;53.178;6.376;2023-08-01T02:18:16;9.80;;;3.78;;
51792;SDS011;37850;53.178;6.376;2023-08-01T02:20:42;8.38;;;3.58;;
51792;SDS011;37850;53.178;6.376;2023-08-01T02:23:11;8.88;;;3.90;;
51792;SDS011;37850;53.178;6.376;2023-08-01T02:25:40;10.32;;;3.83;;
51792;SDS011;37850;53.178;6.376;2023-08-01T02:28:06;9.80;;;3.80;;
51792;SDS011;37850;53.178;6.376;2023-08-01T02:30:32;12.75;;;3.60;;
51792;SDS011;37850;53.178;6.376;2023-08-01T02:32:59;9.45;;;3.80;;
51792;SDS011;37850;53.178;6.376;2023-08-01T02:35:24;11.65;;;4.32;;
51792;SDS011;37850;53.178;6.376;2023-08-01T02:37:50;11.52;;;3.67;;
51792;SDS011;37850;53.178;6.376;2023-08-01T02:40:16;8.05;;;3.45;;
51792;SDS011;37850;53.178;6.376;2023-08-01T02:42:42;10.13;;;3.33;;
51792;SDS011;37850;53.178;6.376;2023-08-01T02:45:08;11.57;;;3.58;;
51792;SDS011;37850;53.178;6.376;2023-08-01T02:47:36;10.05;;;3.63;;
51792;SDS011;37850;53.178;6.376;2023-08-01T02:50:02;12.98;;;4.10;;
51792;SDS011;37850;53.178;6.376;2023-08-01T02:52:28;11.75;;;4.45;;
51792;SDS011;37850;53.178;6.376;2023-08-01T02:54:55;11.65;;;4.25;;
51792;SDS011;37850;53.178;6.376;2023-08-01T02:57:20;9.68;;;4.07;;
51792;SDS011;37850;53.178;6.376;2023-08-01T02:59:46;7.55;;;3.78;;
51792;SDS011;37850;53.178;6.376;2023-08-01T03:02:12;13.95;;;4.30;;
51792;SDS011;37850;53.178;6.376;2023-08-01T03:04:38;14.43;;;4.57;;
51792;SDS011;37850;53.178;6.376;2023-08-01T03:07:04;12.77;;;4.72;;
51792;SDS011;37850;53.178;6.376;2023-08-01T03:09:29;11.35;;;4.10;;
51792;SDS011;37850;53.178;6.376;2023-08-01T03:11:56;10.65;;;4.50;;
51792;SDS011;37850;53.178;6.376;2023-08-01T03:14:22;14.18;;;4.47;;
51792;SDS011;37850;53.178;6.376;2023-08-01T03:16:48;10.48;;;4.50;;
51792;SDS011;37850;53.178;6.376;2023-08-01T03:19:14;12.63;;;4.43;;
51792;SDS011;37850;53.178;6.376;2023-08-01T03:21:40;13.00;;;4.60;;
51792;SDS011;37850;53.178;6.376;2023-08-01T03:24:06;12.23;;;4.57;;
51792;SDS011;37850;53.178;6.376;2023-08-01T03:26:35;14.25;;;5.00;;
51792;SDS011;37850;53.178;6.376;2023-08-01T03:29:01;12.70;;;4.82;;
51792;SDS011;37850;53.178;6.376;2023-08-01T03:31:27;11.85;;;4.75;;
51792;SDS011;37850;53.178;6.376;2023-08-01T03:33:53;13.43;;;4.40;;
51792;SDS011;37850;53.178;6.376;2023-08-01T03:36:19;12.50;;;4.68;;
51792;SDS011;37850;53.178;6.376;2023-08-01T03:38:45;12.88;;;4.57;;
51792;SDS011;37850;53.178;6.376;2023-08-01T03:41:11;12.82;;;3.53;;
51792;SDS011;37850;53.178;6.376;2023-08-01T03:43:37;13.18;;;4.45;;
51792;SDS011;37850;53.178;6.376;2023-08-01T03:46:03;9.93;;;3.80;;
51792;SDS011;37850;53.178;6.376;2023-08-01T03:48:30;10.68;;;4.03;;
51792;SDS011;37850;53.178;6.376;2023-08-01T03:50:56;9.75;;;3.60;;
51792;SDS011;37850;53.178;6.376;2023-08-01T03:53:21;10.88;;;3.80;;
51792;SDS011;37850;53.178;6.376;2023-08-01T03:55:47;9.43;;;3.15;;
51792;SDS011;37850;53.178;6.376;2023-08-01T03:58:13;13.52;;;3.45;;
51792;SDS011;37850;53.178;6.376;2023-08-01T04:00:39;9.43;;;2.85;;
51792;SDS011;37850;53.178;6.376;2023-08-01T04:03:05;9.50;;;3.30;;
51792;SDS011;37850;53.178;6.376;2023-08-01T04:05:31;12.13;;;2.80;;
51792;SDS011;37850;53.178;6.376;2023-08-01T04:07:57;11.88;;;2.40;;
51792;SDS011;37850;53.178;6.376;2023-08-01T04:10:23;8.80;;;2.90;;
51792;SDS011;37850;53.178;6.376;2023-08-01T04:12:49;8.07;;;2.72;;
51792;SDS011;37850;53.178;6.376;2023-08-01T04:15:15;11.00;;;2.78;;
51792;SDS011;37850;53.178;6.376;2023-08-01T04:17:40;10.85;;;3.22;;
51792;SDS011;37850;53.178;6.376;2023-08-01T04:20:07;9.32;;;2.63;;
51792;SDS011;37850;53.178;6.376;2023-08-01T04:22:33;15.40;;;2.83;;
51792;SDS011;37850;53.178;6.376;2023-08-01T04:25:00;9.95;;;2.17;;
51792;SDS011;37850;53.178;6.376;2023-08-01T04:27:26;10.90;;;2.55;;
51792;SDS011;37850;53.178;6.376;2023-08-01T04:29:52;8.70;;;2.13;;
51792;SDS011;37850;53.178;6.376;2023-08-01T04:32:19;11.98;;;2.40;;
51792;SDS011;37850;53.178;6.376;2023-08-01T04:34:45;10.40;;;2.50;;
51792;SDS011;37850;53.178;6.376;2023-08-01T04:37:10;10.13;;;2.70;;
51792;SDS011;37850;53.178;6.376;2023-08-01T04:39:36;14.57;;;2.28;;
51792;SDS011;37850;53.178;6.376;2023-08-01T04:42:02;7.70;;;2.00;;
51792;SDS011;37850;53.178;6.376;2023-08-01T04:44:28;12.48;;;2.25;;
51792;SDS011;37850;53.178;6.376;2023-08-01T04:46:55;10.20;;;1.90;;
51792;SDS011;37850;53.178;6.376;2023-08-01T04:49:21;9.40;;;2.00;;
51792;SDS011;37850;53.178;6.376;2023-08-01T04:51:48;13.13;;;1.98;;
51792;SDS011;37850;53.178;6.376;2023-08-01T04:54:15;12.57;;;2.10;;
51792;SDS011;37850;53.178;6.376;2023-08-01T04:56:41;12.85;;;2.00;;
51792;SDS011;37850;53.178;6.376;2023-08-01T04:59:06;5.97;;;1.77;;
51792;SDS011;37850;53.178;6.376;2023-08-01T05:01:32;10.77;;;2.65;;
51792;SDS011;37850;53.178;6.376;2023-08-01T05:03:58;7.30;;;1.80;;
51792;SDS011;37850;53.178;6.376;2023-08-01T05:06:24;11.40;;;2.10;;
51792;SDS011;37850;53.178;6.376;2023-08-01T05:08:52;9.00;;;1.80;;
51792;SDS011;37850;53.178;6.376;2023-08-01T05:11:18;10.55;;;1.83;;
51792;SDS011;37850;53.178;6.376;2023-08-01T05:13:44;8.30;;;2.28;;
51792;SDS011;37850;53.178;6.376;2023-08-01T05:16:10;8.43;;;1.60;;
51792;SDS011;37850;53.178;6.376;2023-08-01T05:18:36;9.93;;;2.35;;
51792;SDS011;37850;53.178;6.376;2023-08-01T05:21:02;7.53;;;1.90;;
51792;SDS011;37850;53.178;6.376;2023-08-01T05:23:28;6.43;;;2.08;;
51792;SDS011;37850;53.178;6.376;2023-08-01T05:25:53;7.47;;;1.65;;
51792;SDS011;37850;53.178;6.376;2023-08-01T05:28:19;5.40;;;1.77;;
51792;SDS011;37850;53.178;6.376;2023-08-01T05:30:45;8.68;;;2.10;;
51792;SDS011;37850;53.178;6.376;2023-08-01T05:33:11;7.88;;;1.73;;
51792;SDS011;37850;53.178;6.376;2023-08-01T05:35:36;6.97;;;1.95;;
51792;SDS011;37850;53.178;6.376;2023-08-01T05:38:02;6.25;;;1.67;;
51792;SDS011;37850;53.178;6.376;2023-08-01T05:40:28;5.32;;;1.65;;
51792;SDS011;37850;53.178;6.376;2023-08-01T05:42:53;7.97;;;2.17;;
51792;SDS011;37850;53.178;6.376;2023-08-01T05:45:19;6.45;;;1.85;;
51792;SDS011;37850;53.178;6.376;2023-08-01T05:47:45;8.05;;;2.30;;
51792;SDS011;37850;53.178;6.376;2023-08-01T05:50:10;9.73;;;2.45;;
51792;SDS011;37850;53.178;6.376;2023-08-01T05:52:36;7.45;;;2.33;;
51792;SDS011;37850;53.178;6.376;2023-08-01T05:55:02;10.10;;;2.78;;
51792;SDS011;37850;53.178;6.376;2023-08-01T05:57:28;6.40;;;2.45;;
51792;SDS011;37850;53.178;6.376;2023-08-01T05:59:54;4.68;;;2.00;;
51792;SDS011;37850;53.178;6.376;2023-08-01T06:02:21;6.18;;;2.13;;
51792;SDS011;37850;53.178;6.376;2023-08-01T06:04:47;6.88;;;2.22;;
51792;SDS011;37850;53.178;6.376;2023-08-01T06:07:13;10.27;;;2.60;;
51792;SDS011;37850;53.178;6.376;2023-08-01T06:09:39;6.93;;;2.42;;
51792;SDS011;37850;53.178;6.376;2023-08-01T06:12:04;6.97;;;2.47;;
51792;SDS011;37850;53.178;6.376;2023-08-01T06:14:30;7.03;;;2.50;;
51792;SDS011;37850;53.178;6.376;2023-08-01T06:16:56;6.88;;;2.30;;
51792;SDS011;37850;53.178;6.376;2023-08-01T06:19:22;10.10;;;2.53;;
51792;SDS011;37850;53.178;6.376;2023-08-01T06:21:48;5.15;;;2.30;;
51792;SDS011;37850;53.178;6.376;2023-08-01T06:24:13;7.88;;;1.90;;
51792;SDS011;37850;53.178;6.376;2023-08-01T06:26:39;6.50;;;2.38;;
51792;SDS011;37850;53.178;6.376;2023-08-01T06:29:05;7.03;;;2.70;;
51792;SDS011;37850;53.178;6.376;2023-08-01T06:31:31;5.13;;;1.67;;
51792;SDS011;37850;53.178;6.376;2023-08-01T06:33:56;7.60;;;1.80;;
51792;SDS011;37850;53.178;6.376;2023-08-01T06:36:22;5.13;;;1.58;;
51792;SDS011;37850;53.178;6.376;2023-08-01T06:38:48;6.78;;;1.70;;
51792;SDS011;37850;53.178;6.376;2023-08-01T06:41:14;6.13;;;1.60;;
51792;SDS011;37850;53.178;6.376;2023-08-01T06:43:40;6.85;;;1.83;;
51792;SDS011;37850;53.178;6.376;2023-08-01T06:46:05;5.30;;;1.52;;
51792;SDS011;37850;53.178;6.376;2023-08-01T06:48:31;7.07;;;2.03;;
51792;SDS011;37850;53.178;6.376;2023-08-01T06:51:00;8.02;;;1.88;;
51792;SDS011;37850;53.178;6.376;2023-08-01T06:53:27;7.35;;;2.00;;
51792;SDS011;37850;53.178;6.376;2023-08-01T06:55:53;7.93;;;1.80;;
51792;SDS011;37850;53.178;6.376;2023-08-01T06:58:19;10.15;;;2.28;;
51792;SDS011;37850;53.178;6.376;2023-08-01T07:00:44;6.72;;;1.92;;
51792;SDS011;37850;53.178;6.376;2023-08-01T07:03:10;7.45;;;1.83;;
51792;SDS011;37850;53.178;6.376;2023-08-01T07:05:36;7.85;;;1.83;;
51792;SDS011;37850;53.178;6.376;2023-08-01T07:08:02;8.57;;;1.38;;
51792;SDS011;37850;53.178;6.376;2023-08-01T07:10:29;6.85;;;1.35;;
51792;SDS011;37850;53.178;6.376;2023-08-01T07:12:55;8.35;;;1.42;;
51792;SDS011;37850;53.178;6.376;2023-08-01T07:15:21;7.93;;;1.60;;
51792;SDS011;37850;53.178;6.376;2023-08-01T07:17:47;6.13;;;1.73;;
51792;SDS011;37850;53.178;6.376;2023-08-01T07:20:12;5.05;;;1.60;;
51792;SDS011;37850;53.178;6.376;2023-08-01T07:22:38;8.02;;;1.25;;
51792;SDS011;37850;53.178;6.376;2023-08-01T07:25:04;8.05;;;1.40;;
51792;SDS011;37850;53.178;6.376;2023-08-01T07:27:30;7.07;;;1.50;;
51792;SDS011;37850;53.178;6.376;2023-08-01T07:29:56;13.43;;;1.55;;
51792;SDS011;37850;53.178;6.376;2023-08-01T07:32:22;10.73;;;1.67;;
51792;SDS011;37850;53.178;6.376;2023-08-01T07:34:48;9.90;;;1.48;;
51792;SDS011;37850;53.178;6.376;2023-08-01T07:37:13;9.73;;;1.00;;
51792;SDS011;37850;53.178;6.376;2023-08-01T07:39:39;12.23;;;1.77;;
51792;SDS011;37850;53.178;6.376;2023-08-01T07:42:05;7.53;;;1.50;;
51792;SDS011;37850;53.178;6.376;2023-08-01T07:44:31;6.13;;;1.27;;
51792;SDS011;37850;53.178;6.376;2023-08-01T07:46:57;5.65;;;1.00;;
51792;SDS011;37850;53.178;6.376;2023-08-01T07:49:22;5.40;;;1.10;;
51792;SDS011;37850;53.178;6.376;2023-08-01T07:51:48;7.85;;;1.10;;
51792;SDS011;37850;53.178;6.376;2023-08-01T07:54:14;4.60;;;0.90;;
51792;SDS011;37850;53.178;6.376;2023-08-01T07:56:40;8.48;;;1.38;;
51792;SDS011;37850;53.178;6.376;2023-08-01T07:59:05;7.18;;;1.30;;
51792;SDS011;37850;53.178;6.376;2023-08-01T08:01:31;10.82;;;1.42;;
51792;SDS011;37850;53.178;6.376;2023-08-01T08:03:57;8.95;;;1.60;;
51792;SDS011;37850;53.178;6.376;2023-08-01T08:06:22;7.93;;;2.30;;
51792;SDS011;37850;53.178;6.376;2023-08-01T08:08:49;9.40;;;1.67;;
51792;SDS011;37850;53.178;6.376;2023-08-01T08:11:15;6.70;;;1.60;;
51792;SDS011;37850;53.178;6.376;2023-08-01T08:13:41;8.35;;;1.63;;
51792;SDS011;37850;53.178;6.376;2023-08-01T08:16:07;7.78;;;1.70;;
51792;SDS011;37850;53.178;6.376;2023-08-01T08:18:33;8.75;;;1.83;;
51792;SDS011;37850;53.178;6.376;2023-08-01T08:20:59;10.77;;;1.90;;
51792;SDS011;37850;53.178;6.376;2023-08-01T08:23:25;7.00;;;1.60;;
51792;SDS011;37850;53.178;6.376;2023-08-01T08:25:50;5.88;;;1.40;;
51792;SDS011;37850;53.178;6.376;2023-08-01T08:28:26;7.60;;;1.13;;
51792;SDS011;37850;53.178;6.376;2023-08-01T08:30:53;9.80;;;1.45;;
51792;SDS011;37850;53.178;6.376;2023-08-01T08:33:20;7.93;;;1.55;;
51792;SDS011;37850;53.178;6.376;2023-08-01T08:35:49;8.05;;;1.48;;
51792;SDS011;37850;53.178;6.376;2023-08-01T08:38:15;7.68;;;1.05;;
51792;SDS011;37850;53.178;6.376;2023-08-01T08:40:43;8.05;;;1.63;;
51792;SDS011;37850;53.178;6.376;2023-08-01T08:43:17;7.68;;;1.33;;
51792;SDS011;37850;53.178;6.376;2023-08-01T08:45:43;9.13;;;1.20;;
51792;SDS011;37850;53.178;6.376;2023-08-01T08:48:13;7.72;;;1.50;;
51792;SDS011;37850;53.178;6.376;2023-08-01T08:50:43;9.88;;;1.80;;
51792;SDS011;37850;53.178;6.376;2023-08-01T08:53:10;7.40;;;1.75;;
51792;SDS011;37850;53.178;6.376;2023-08-01T08:55:40;9.68;;;1.75;;
51792;SDS011;37850;53.178;6.376;2023-08-01T08:58:07;9.25;;;1.48;;
51792;SDS011;37850;53.178;6.376;2023-08-01T09:00:36;13.27;;;2.17;;
51792;SDS011;37850;53.178;6.376;2023-08-01T09:03:03;8.82;;;1.85;;
51792;SDS011;37850;53.178;6.376;2023-08-01T09:05:31;7.53;;;1.80;;
51792;SDS011;37850;53.178;6.376;2023-08-01T09:08:03;6.95;;;1.90;;
51792;SDS011;37850;53.178;6.376;2023-08-01T09:10:32;10.95;;;2.10;;
51792;SDS011;37850;53.178;6.376;2023-08-01T09:12:58;8.45;;;1.65;;
51792;SDS011;37850;53.178;6.376;2023-08-01T09:15:25;6.88;;;1.30;;
51792;SDS011;37850;53.178;6.376;2023-08-01T09:17:54;6.15;;;1.67;;
51792;SDS011;37850;53.178;6.376;2023-08-01T09:20:26;7.35;;;1.65;;
51792;SDS011;37850;53.178;6.376;2023-08-01T09:22:55;6.25;;;1.50;;
51792;SDS011;37850;53.178;6.376;2023-08-01T09:25:30;6.07;;;1.48;;
51792;SDS011;37850;53.178;6.376;2023-08-01T09:27:57;7.35;;;1.40;;
51792;SDS011;37850;53.178;6.376;2023-08-01T09:30:23;5.10;;;1.50;;
51792;SDS011;37850;53.178;6.376;2023-08-01T09:32:52;7.15;;;1.55;;
51792;SDS011;37850;53.178;6.376;2023-08-01T09:35:18;8.70;;;1.58;;
51792;SDS011;37850;53.178;6.376;2023-08-01T09:37:44;7.22;;;1.48;;
51792;SDS011;37850;53.178;6.376;2023-08-01T09:40:10;5.90;;;1.45;;
51792;SDS011;37850;53.178;6.376;2023-08-01T09:42:43;7.70;;;1.42;;
51792;SDS011;37850;53.178;6.376;2023-08-01T09:45:13;11.13;;;1.77;;
51792;SDS011;37850;53.178;6.376;2023-08-01T09:47:39;11.57;;;1.90;;
51792;SDS011;37850;53.178;6.376;2023-08-01T09:50:06;9.43;;;1.73;;
51792;SDS011;37850;53.178;6.376;2023-08-01T09:52:32;5.75;;;1.40;;
51792;SDS011;37850;53.178;6.376;2023-08-01T09:54:58;10.25;;;1.60;;
51792;SDS011;37850;53.178;6.376;2023-08-01T09:57:24;10.40;;;1.75;;
51792;SDS011;37850;53.178;6.376;2023-08-01T09:59:54;12.40;;;1.85;;
51792;SDS011;37850;53.178;6.376;2023-08-01T10:02:22;7.53;;;1.30;;
51792;SDS011;37850;53.178;6.376;2023-08-01T10:04:51;8.60;;;1.90;;
51792;SDS011;37850;53.178;6.376;2023-08-01T10:07:21;5.68;;;1.73;;
51792;SDS011;37850;53.178;6.376;2023-08-01T10:12:17;8.15;;;1.40;;
51792;SDS011;37850;53.178;6.376;2023-08-01T10:14:43;10.18;;;2.17;;
51792;SDS011;37850;53.178;6.376;2023-08-01T10:17:10;9.43;;;1.73;;
51792;SDS011;37850;53.178;6.376;2023-08-01T10:19:36;8.48;;;1.50;;
51792;SDS011;37850;53.178;6.376;2023-08-01T10:22:03;6.22;;;1.55;;
51792;SDS011;37850;53.178;6.376;2023-08-01T10:24:31;11.35;;;1.80;;
51792;SDS011;37850;53.178;6.376;2023-08-01T10:27:08;11.90;;;1.70;;
51792;SDS011;37850;53.178;6.376;2023-08-01T10:29:38;7.10;;;1.57;;
51792;SDS011;37850;53.178;6.376;2023-08-01T10:32:06;10.82;;;1.63;;
51792;SDS011;37850;53.178;6.376;2023-08-01T10:34:32;9.93;;;1.70;;
51792;SDS011;37850;53.178;6.376;2023-08-01T10:36:58;5.65;;;1.20;;
51792;SDS011;37850;53.178;6.376;2023-08-01T10:39:26;6.03;;;1.10;;
51792;SDS011;37850;53.178;6.376;2023-08-01T10:44:25;5.95;;;1.20;;
51792;SDS011;37850;53.178;6.376;2023-08-01T10:49:40;6.93;;;1.30;;
51792;SDS011;37850;53.178;6.376;2023-08-01T10:52:19;8.43;;;1.20;;
51792;SDS011;37850;53.178;6.376;2023-08-01T10:57:27;7.88;;;1.20;;
51792;SDS011;37850;53.178;6.376;2023-08-01T10:59:57;7.32;;;1.35;;
51792;SDS011;37850;53.178;6.376;2023-08-01T11:02:25;6.65;;;1.30;;
51792;SDS011;37850;53.178;6.376;2023-08-01T11:04:59;5.43;;;1.10;;
51792;SDS011;37850;53.178;6.376;2023-08-01T11:07:26;5.10;;;1.23;;
51792;SDS011;37850;53.178;6.376;2023-08-01T11:12:49;7.72;;;1.35;;
51792;SDS011;37850;53.178;6.376;2023-08-01T11:15:15;8.90;;;1.42;;
51792;SDS011;37850;53.178;6.376;2023-08-01T11:17:42;8.07;;;1.63;;
51792;SDS011;37850;53.178;6.376;2023-08-01T11:20:12;8.43;;;1.42;;
51792;SDS011;37850;53.178;6.376;2023-08-01T11:22:49;7.72;;;1.30;;
51792;SDS011;37850;53.178;6.376;2023-08-01T11:28:08;11.05;;;1.55;;
51792;SDS011;37850;53.178;6.376;2023-08-01T11:30:40;7.97;;;1.58;;
51792;SDS011;37850;53.178;6.376;2023-08-01T11:33:13;7.55;;;1.55;;
51792;SDS011;37850;53.178;6.376;2023-08-01T11:35:50;5.60;;;1.40;;
51792;SDS011;37850;53.178;6.376;2023-08-01T11:38:22;9.30;;;1.40;;
51792;SDS011;37850;53.178;6.376;2023-08-01T11:40:50;7.88;;;2.10;;
51792;SDS011;37850;53.178;6.376;2023-08-01T11:43:17;11.35;;;2.20;;
51792;SDS011;37850;53.178;6.376;2023-08-01T11:45:49;8.35;;;2.17;;
51792;SDS011;37850;53.178;6.376;2023-08-01T11:48:15;8.18;;;1.50;;
51792;SDS011;37850;53.178;6.376;2023-08-01T11:50:43;5.03;;;1.27;;
51792;SDS011;37850;53.178;6.376;2023-08-01T11:53:18;12.40;;;1.40;;
51792;SDS011;37850;53.178;6.376;2023-08-01T11:55:45;9.73;;;2.55;;
51792;SDS011;37850;53.178;6.376;2023-08-01T11:58:11;15.20;;;2.30;;
51792;SDS011;37850;53.178;6.376;2023-08-01T12:00:39;11.00;;;1.95;;
51792;SDS011;37850;53.178;6.376;2023-08-01T12:03:06;10.80;;;1.80;;
51792;SDS011;37850;53.178;6.376;2023-08-01T12:05:33;10.68;;;2.10;;
51792;SDS011;37850;53.178;6.376;2023-08-01T12:08:11;18.58;;;2.63;;
51792;SDS011;37850;53.178;6.376;2023-08-01T12:10:41;13.05;;;2.45;;
51792;SDS011;37850;53.178;6.376;2023-08-01T12:13:24;10.07;;;2.75;;
51792;SDS011;37850;53.178;6.376;2023-08-01T12:15:52;7.13;;;1.67;;
51792;SDS011;37850;53.178;6.376;2023-08-01T12:18:22;12.77;;;2.80;;
51792;SDS011;37850;53.178;6.376;2023-08-01T12:20:50;7.65;;;1.92;;
51792;SDS011;37850;53.178;6.376;2023-08-01T12:23:16;16.70;;;3.95;;
51792;SDS011;37850;53.178;6.376;2023-08-01T12:25:42;10.43;;;1.85;;
51792;SDS011;37850;53.178;6.376;2023-08-01T12:28:08;11.80;;;2.47;;
51792;SDS011;37850;53.178;6.376;2023-08-01T12:30:34;7.72;;;1.85;;
51792;SDS011;37850;53.178;6.376;2023-08-01T12:33:00;6.35;;;1.45;;
51792;SDS011;37850;53.178;6.376;2023-08-01T12:35:26;12.45;;;1.50;;
51792;SDS011;37850;53.178;6.376;2023-08-01T12:37:55;6.20;;;1.60;;
51792;SDS011;37850;53.178;6.376;2023-08-01T12:40:21;9.80;;;1.88;;
51792;SDS011;37850;53.178;6.376;2023-08-01T12:42:47;9.85;;;1.30;;
51792;SDS011;37850;53.178;6.376;2023-08-01T12:45:13;7.07;;;1.40;;
51792;SDS011;37850;53.178;6.376;2023-08-01T12:47:39;11.13;;;1.73;;
51792;SDS011;37850;53.178;6.376;2023-08-01T12:50:04;9.80;;;1.83;;
51792;SDS011;37850;53.178;6.376;2023-08-01T12:52:31;13.90;;;1.75;;
51792;SDS011;37850;53.178;6.376;2023-08-01T12:54:56;8.57;;;2.03;;
51792;SDS011;37850;53.178;6.376;2023-08-01T12:57:22;12.77;;;1.90;;
51792;SDS011;37850;53.178;6.376;2023-08-01T12:59:48;12.32;;;1.77;;
51792;SDS011;37850;53.178;6.376;2023-08-01T13:02:14;8.30;;;1.65;;
51792;SDS011;37850;53.178;6.376;2023-08-01T13:04:40;8.52;;;1.38;;
51792;SDS011;37850;53.178;6.376;2023-08-01T13:07:06;7.18;;;1.35;;
51792;SDS011;37850;53.178;6.376;2023-08-01T13:09:31;9.52;;;1.70;;
51792;SDS011;37850;53.178;6.376;2023-08-01T13:11:57;5.43;;;1.20;;
51792;SDS011;37850;53.178;6.376;2023-08-01T13:14:25;4.15;;;0.90;;
51792;SDS011;37850;53.178;6.376;2023-08-01T13:16:51;8.30;;;1.33;;
51792;SDS011;37850;53.178;6.376;2023-08-01T13:19:17;5.13;;;1.40;;
51792;SDS011;37850;53.178;6.376;2023-08-01T13:21:44;8.75;;;1.83;;
51792;SDS011;37850;53.178;6.376;2023-08-01T13:24:09;5.32;;;1.08;;
51792;SDS011;37850;53.178;6.376;2023-08-01T13:26:35;9.68;;;1.55;;
51792;SDS011;37850;53.178;6.376;2023-08-01T13:29:01;6.43;;;1.25;;
51792;SDS011;37850;53.178;6.376;2023-08-01T13:31:27;6.53;;;1.95;;
51792;SDS011;37850;53.178;6.376;2023-08-01T13:33:54;7.88;;;1.50;;
51792;SDS011;37850;53.178;6.376;2023-08-01T13:36:20;6.93;;;1.30;;
51792;SDS011;37850;53.178;6.376;2023-08-01T13:38:46;7.95;;;1.35;;
51792;SDS011;37850;53.178;6.376;2023-08-01T13:41:13;6.60;;;1.70;;
51792;SDS011;37850;53.178;6.376;2023-08-01T13:43:39;6.30;;;1.15;;
51792;SDS011;37850;53.178;6.376;2023-08-01T13:46:12;6.95;;;1.30;;
51792;SDS011;37850;53.178;6.376;2023-08-01T13:48:40;9.05;;;1.23;;
51792;SDS011;37850;53.178;6.376;2023-08-01T13:51:06;5.60;;;1.00;;
51792;SDS011;37850;53.178;6.376;2023-08-01T13:53:32;8.13;;;1.10;;
51792;SDS011;37850;53.178;6.376;2023-08-01T13:55:59;8.80;;;1.20;;
51792;SDS011;37850;53.178;6.376;2023-08-01T13:58:25;6.15;;;1.35;;
51792;SDS011;37850;53.178;6.376;2023-08-01T14:00:50;5.30;;;0.90;;
51792;SDS011;37850;53.178;6.376;2023-08-01T14:03:16;4.22;;;1.30;;
51792;SDS011;37850;53.178;6.376;2023-08-01T14:05:42;8.00;;;1.60;;
51792;SDS011;37850;53.178;6.376;2023-08-01T14:08:08;3.70;;;1.10;;
51792;SDS011;37850;53.178;6.376;2023-08-01T14:10:33;5.47;;;1.45;;
51792;SDS011;37850;53.178;6.376;2023-08-01T14:12:59;6.88;;;1.38;;
51792;SDS011;37850;53.178;6.376;2023-08-01T14:15:25;6.63;;;1.60;;
51792;SDS011;37850;53.178;6.376;2023-08-01T14:17:51;9.90;;;1.42;;
51792;SDS011;37850;53.178;6.376;2023-08-01T14:20:18;9.10;;;1.63;;
51792;SDS011;37850;53.178;6.376;2023-08-01T14:22:44;9.98;;;1.60;;
51792;SDS011;37850;53.178;6.376;2023-08-01T14:25:10;6.95;;;1.40;;
51792;SDS011;37850;53.178;6.376;2023-08-01T14:27:35;5.15;;;1.20;;
51792;SDS011;37850;53.178;6.376;2023-08-01T14:30:02;7.05;;;1.08;;
51792;SDS011;37850;53.178;6.376;2023-08-01T14:32:28;5.63;;;1.00;;
51792;SDS011;37850;53.178;6.376;2023-08-01T14:34:54;7.35;;;1.33;;
51792;SDS011;37850;53.178;6.376;2023-08-01T14:37:20;6.13;;;1.15;;
51792;SDS011;37850;53.178;6.376;2023-08-01T14:39:51;5.82;;;1.27;;
51792;SDS011;37850;53.178;6.376;2023-08-01T14:42:16;4.28;;;1.40;;
51792;SDS011;37850;53.178;6.376;2023-08-01T14:44:42;5.28;;;1.20;;
51792;SDS011;37850;53.178;6.376;2023-08-01T14:47:08;3.30;;;0.93;;
51792;SDS011;37850;53.178;6.376;2023-08-01T14:49:34;4.68;;;1.13;;
51792;SDS011;37850;53.178;6.376;2023-08-01T14:51:59;4.95;;;1.00;;
51792;SDS011;37850;53.178;6.376;2023-08-01T14:54:25;7.15;;;1.10;;
51792;SDS011;37850;53.178;6.376;2023-08-01T14:56:51;4.40;;;1.10;;